< < Back
Terminal Aerodrome Forecast


Current Version              Previous Versions:   1  2  3  4  5  6  7  8  9  

Terminal Aerodrome Forecast

859
FTUS42 KFFC 011100
TAFCSG
TAF
KCSG 011136Z 0112/0212 32012G25KT P6SM VCSH SCT150
     FM011600 32018G33KT P6SM SCT050
     FM012000 32018G30KT P6SM SCT060
     FM020000 33015G25KT P6SM FEW070
     FM020600 32010KT P6SM SKC=



Latest METAR

085
SAUS70 KWBC 011300 RRI
MTRCSG
METAR KCSG 011251Z 31017G20KT 10SM CLR 04/M03 A3007 RMK AO2 SLP181
T00391033


USA.gov is the U.S. government's official web portal to all federal, state and local government web resources and services.